Disclaimer

Please do not use the information listed here in-flight or in-navigation, as they are not provided to us by the airports but are provided by volunteers, so they might be outdated.

Search


Regions


Airport information page

Radio informations:
BELIZE TWR - 118.0 MHz
BELIZE RDO - 126.9 MHz
Ground (GND) - 121.9 MHz
BELIZE APP - 121.0 MHz

Airport informations:
Latitude: 17° 32' 20.92" N
Longitude: 088° 18' 29.53" W
Elevation: 15 feet - 5 meters
Operating hours: Remarks
Operating agency: Civil government, landing fees and diplomatic clearance may be required
Timezone: UTC-6
Fuel: Jet A1, without icing nhibitor.

100/130 MIL Spec, low lead, aviation gasoline (BLUE)

Runway information:
07/25 - 7100 x 150 feet< - >2164 x 46 meters

Recent METARs:
MZBZ 162200Z 36009KT 9999 FEW022 SCT048 27/17 A3000 Q1015 NOSIG
MZBZ 162300Z 35006KT 9999 FEW020 SCT048 26/18 A3000 Q1016 NOSIG
MZBZ 162300Z 35006KT 9999 FEW020 SCT048 26/18 A3000 Q1016 NOSIG

Airport on the map: